sensor_id;sensor_type;location;lat;lon;timestamp;P1;durP1;ratioP1;P2;durP2;ratioP2
43901;SDS011;29562;40.390;-3.706;2023-04-06T00:09:03;2.67;;;0.50;;
43901;SDS011;29562;40.390;-3.706;2023-04-06T00:19:05;1.92;;;0.85;;
43901;SDS011;29562;40.390;-3.706;2023-04-06T00:29:07;0.90;;;0.50;;
43901;SDS011;29562;40.390;-3.706;2023-04-06T00:39:09;2.53;;;0.90;;
43901;SDS011;29562;40.390;-3.706;2023-04-06T00:49:10;2.33;;;0.75;;
43901;SDS011;29562;40.390;-3.706;2023-04-06T00:59:12;2.05;;;1.00;;
43901;SDS011;29562;40.390;-3.706;2023-04-06T01:09:13;2.03;;;0.68;;
43901;SDS011;29562;40.390;-3.706;2023-04-06T01:19:15;2.00;;;1.00;;
43901;SDS011;29562;40.390;-3.706;2023-04-06T01:29:17;3.00;;;0.85;;
43901;SDS011;29562;40.390;-3.706;2023-04-06T01:39:19;1.92;;;0.82;;
43901;SDS011;29562;40.390;-3.706;2023-04-06T01:49:20;2.42;;;0.93;;
43901;SDS011;29562;40.390;-3.706;2023-04-06T01:59:22;2.97;;;1.05;;
43901;SDS011;29562;40.390;-3.706;2023-04-06T02:09:24;0.88;;;0.40;;
43901;SDS011;29562;40.390;-3.706;2023-04-06T02:19:25;2.25;;;0.50;;
43901;SDS011;29562;40.390;-3.706;2023-04-06T02:29:27;1.60;;;0.40;;
43901;SDS011;29562;40.390;-3.706;2023-04-06T02:39:29;1.55;;;0.47;;
43901;SDS011;29562;40.390;-3.706;2023-04-06T02:49:31;1.75;;;0.60;;
43901;SDS011;29562;40.390;-3.706;2023-04-06T02:59:32;2.50;;;0.60;;
43901;SDS011;29562;40.390;-3.706;2023-04-06T03:09:36;4.68;;;0.73;;
43901;SDS011;29562;40.390;-3.706;2023-04-06T03:19:37;1.38;;;0.60;;
43901;SDS011;29562;40.390;-3.706;2023-04-06T03:29:39;0.88;;;0.40;;
43901;SDS011;29562;40.390;-3.706;2023-04-06T03:39:41;0.80;;;0.22;;
43901;SDS011;29562;40.390;-3.706;2023-04-06T03:49:42;2.10;;;0.30;;
43901;SDS011;29562;40.390;-3.706;2023-04-06T03:59:44;1.13;;;0.50;;
43901;SDS011;29562;40.390;-3.706;2023-04-06T04:09:46;1.55;;;0.25;;
43901;SDS011;29562;40.390;-3.706;2023-04-06T04:19:47;3.70;;;0.30;;
43901;SDS011;29562;40.390;-3.706;2023-04-06T04:29:49;2.47;;;0.38;;
43901;SDS011;29562;40.390;-3.706;2023-04-06T04:39:51;1.75;;;0.30;;
43901;SDS011;29562;40.390;-3.706;2023-04-06T04:49:52;0.70;;;0.35;;
43901;SDS011;29562;40.390;-3.706;2023-04-06T04:59:54;1.35;;;0.60;;
43901;SDS011;29562;40.390;-3.706;2023-04-06T05:09:55;3.95;;;0.73;;
43901;SDS011;29562;40.390;-3.706;2023-04-06T05:19:57;0.68;;;0.40;;
43901;SDS011;29562;40.390;-3.706;2023-04-06T05:29:58;2.17;;;0.45;;
43901;SDS011;29562;40.390;-3.706;2023-04-06T05:40:00;2.28;;;0.43;;
43901;SDS011;29562;40.390;-3.706;2023-04-06T05:50:03;2.67;;;0.70;;
43901;SDS011;29562;40.390;-3.706;2023-04-06T06:00:05;1.80;;;0.63;;
43901;SDS011;29562;40.390;-3.706;2023-04-06T06:10:09;3.88;;;0.60;;
43901;SDS011;29562;40.390;-3.706;2023-04-06T06:20:11;1.55;;;0.45;;
43901;SDS011;29562;40.390;-3.706;2023-04-06T06:30:13;4.82;;;1.08;;
43901;SDS011;29562;40.390;-3.706;2023-04-06T06:40:15;4.03;;;0.90;;
43901;SDS011;29562;40.390;-3.706;2023-04-06T06:50:18;2.15;;;0.90;;
43901;SDS011;29562;40.390;-3.706;2023-04-06T07:00:20;3.13;;;1.17;;
43901;SDS011;29562;40.390;-3.706;2023-04-06T07:10:22;6.38;;;0.88;;
43901;SDS011;29562;40.390;-3.706;2023-04-06T07:20:24;4.93;;;0.80;;
43901;SDS011;29562;40.390;-3.706;2023-04-06T07:30:26;2.33;;;0.70;;
43901;SDS011;29562;40.390;-3.706;2023-04-06T07:40:29;2.60;;;0.80;;
43901;SDS011;29562;40.390;-3.706;2023-04-06T07:50:32;4.10;;;0.70;;
43901;SDS011;29562;40.390;-3.706;2023-04-06T08:00:34;2.90;;;1.10;;
43901;SDS011;29562;40.390;-3.706;2023-04-06T08:10:36;6.50;;;1.05;;
43901;SDS011;29562;40.390;-3.706;2023-04-06T08:20:38;2.95;;;0.98;;
43901;SDS011;29562;40.390;-3.706;2023-04-06T08:30:41;2.28;;;0.70;;
43901;SDS011;29562;40.390;-3.706;2023-04-06T08:40:43;1.85;;;0.60;;
43901;SDS011;29562;40.390;-3.706;2023-04-06T08:50:47;1.90;;;1.02;;
43901;SDS011;29562;40.390;-3.706;2023-04-06T09:00:50;2.88;;;0.63;;
43901;SDS011;29562;40.390;-3.706;2023-04-06T09:10:52;5.07;;;0.93;;
43901;SDS011;29562;40.390;-3.706;2023-04-06T09:20:58;2.97;;;0.80;;
43901;SDS011;29562;40.390;-3.706;2023-04-06T09:31:00;2.50;;;0.85;;
43901;SDS011;29562;40.390;-3.706;2023-04-06T09:41:02;5.20;;;0.70;;
43901;SDS011;29562;40.390;-3.706;2023-04-06T09:51:04;2.28;;;0.80;;
43901;SDS011;29562;40.390;-3.706;2023-04-06T10:01:07;2.05;;;0.80;;
43901;SDS011;29562;40.390;-3.706;2023-04-06T10:11:12;3.08;;;0.80;;
43901;SDS011;29562;40.390;-3.706;2023-04-06T10:21:14;3.15;;;0.82;;
43901;SDS011;29562;40.390;-3.706;2023-04-06T10:31:24;4.22;;;0.75;;
43901;SDS011;29562;40.390;-3.706;2023-04-06T10:51:37;2.10;;;0.70;;
43901;SDS011;29562;40.390;-3.706;2023-04-06T11:01:39;5.13;;;0.63;;
43901;SDS011;29562;40.390;-3.706;2023-04-06T11:11:46;12.95;;;6.03;;
43901;SDS011;29562;40.390;-3.706;2023-04-06T11:21:48;4.38;;;0.75;;
43901;SDS011;29562;40.390;-3.706;2023-04-06T11:31:54;4.10;;;0.50;;
43901;SDS011;29562;40.390;-3.706;2023-04-06T11:42:00;3.13;;;0.70;;
43901;SDS011;29562;40.390;-3.706;2023-04-06T11:52:02;2.10;;;0.63;;
43901;SDS011;29562;40.390;-3.706;2023-04-06T12:02:04;2.45;;;0.73;;
43901;SDS011;29562;40.390;-3.706;2023-04-06T12:12:06;0.70;;;0.50;;
43901;SDS011;29562;40.390;-3.706;2023-04-06T12:22:08;1.52;;;0.60;;
43901;SDS011;29562;40.390;-3.706;2023-04-06T12:32:09;1.92;;;0.45;;
43901;SDS011;29562;40.390;-3.706;2023-04-06T12:42:11;1.77;;;0.38;;
43901;SDS011;29562;40.390;-3.706;2023-04-06T12:52:14;1.95;;;0.20;;
43901;SDS011;29562;40.390;-3.706;2023-04-06T13:02:15;0.60;;;0.45;;
43901;SDS011;29562;40.390;-3.706;2023-04-06T13:12:17;1.23;;;0.40;;
43901;SDS011;29562;40.390;-3.706;2023-04-06T13:22:19;1.00;;;0.40;;
43901;SDS011;29562;40.390;-3.706;2023-04-06T13:32:21;1.00;;;0.55;;
43901;SDS011;29562;40.390;-3.706;2023-04-06T13:42:23;2.63;;;0.95;;
43901;SDS011;29562;40.390;-3.706;2023-04-06T13:52:24;3.17;;;0.40;;
43901;SDS011;29562;40.390;-3.706;2023-04-06T14:02:26;1.38;;;0.25;;
43901;SDS011;29562;40.390;-3.706;2023-04-06T14:12:27;4.65;;;0.73;;
43901;SDS011;29562;40.390;-3.706;2023-04-06T14:22:29;3.63;;;0.45;;
43901;SDS011;29562;40.390;-3.706;2023-04-06T14:32:31;4.93;;;2.50;;
43901;SDS011;29562;40.390;-3.706;2023-04-06T14:42:33;1.13;;;0.40;;
43901;SDS011;29562;40.390;-3.706;2023-04-06T14:52:34;2.40;;;0.55;;
43901;SDS011;29562;40.390;-3.706;2023-04-06T15:02:36;0.75;;;0.28;;
43901;SDS011;29562;40.390;-3.706;2023-04-06T15:12:38;0.77;;;0.50;;
43901;SDS011;29562;40.390;-3.706;2023-04-06T15:22:40;2.38;;;0.82;;
43901;SDS011;29562;40.390;-3.706;2023-04-06T15:33:00;1.67;;;0.80;;
43901;SDS011;29562;40.390;-3.706;2023-04-06T15:43:03;1.25;;;0.60;;
43901;SDS011;29562;40.390;-3.706;2023-04-06T15:53:05;1.35;;;0.50;;
43901;SDS011;29562;40.390;-3.706;2023-04-06T16:03:06;1.83;;;0.40;;
43901;SDS011;29562;40.390;-3.706;2023-04-06T16:13:08;2.97;;;1.08;;
43901;SDS011;29562;40.390;-3.706;2023-04-06T16:23:10;2.00;;;0.50;;
43901;SDS011;29562;40.390;-3.706;2023-04-06T16:33:12;9.77;;;4.50;;
43901;SDS011;29562;40.390;-3.706;2023-04-06T16:43:18;0.98;;;0.50;;
43901;SDS011;29562;40.390;-3.706;2023-04-06T16:53:20;1.20;;;0.60;;
43901;SDS011;29562;40.390;-3.706;2023-04-06T17:03:21;0.88;;;0.30;;
43901;SDS011;29562;40.390;-3.706;2023-04-06T17:13:23;1.23;;;0.60;;
43901;SDS011;29562;40.390;-3.706;2023-04-06T17:23:25;3.78;;;0.50;;
43901;SDS011;29562;40.390;-3.706;2023-04-06T17:33:27;2.92;;;0.30;;
43901;SDS011;29562;40.390;-3.706;2023-04-06T17:43:30;2.30;;;0.77;;
43901;SDS011;29562;40.390;-3.706;2023-04-06T17:53:33;2.35;;;0.50;;
43901;SDS011;29562;40.390;-3.706;2023-04-06T18:03:36;5.47;;;0.43;;
43901;SDS011;29562;40.390;-3.706;2023-04-06T18:13:38;3.92;;;1.23;;
43901;SDS011;29562;40.390;-3.706;2023-04-06T18:23:40;2.38;;;0.93;;
43901;SDS011;29562;40.390;-3.706;2023-04-06T18:33:41;2.95;;;1.05;;
43901;SDS011;29562;40.390;-3.706;2023-04-06T18:43:43;6.28;;;1.88;;
43901;SDS011;29562;40.390;-3.706;2023-04-06T18:53:45;7.47;;;4.32;;
43901;SDS011;29562;40.390;-3.706;2023-04-06T19:03:47;5.75;;;2.55;;
43901;SDS011;29562;40.390;-3.706;2023-04-06T19:13:49;16.90;;;7.78;;
43901;SDS011;29562;40.390;-3.706;2023-04-06T19:23:51;10.63;;;7.20;;
43901;SDS011;29562;40.390;-3.706;2023-04-06T19:33:57;14.75;;;8.43;;
43901;SDS011;29562;40.390;-3.706;2023-04-06T19:43:59;11.70;;;6.60;;
43901;SDS011;29562;40.390;-3.706;2023-04-06T19:54:01;12.90;;;6.43;;
43901;SDS011;29562;40.390;-3.706;2023-04-06T20:04:03;12.18;;;5.38;;
43901;SDS011;29562;40.390;-3.706;2023-04-06T20:14:05;10.40;;;5.03;;
43901;SDS011;29562;40.390;-3.706;2023-04-06T20:24:07;11.23;;;4.88;;
43901;SDS011;29562;40.390;-3.706;2023-04-06T20:34:08;10.57;;;5.38;;
43901;SDS011;29562;40.390;-3.706;2023-04-06T20:44:10;7.43;;;2.67;;
43901;SDS011;29562;40.390;-3.706;2023-04-06T20:54:13;5.28;;;2.90;;
43901;SDS011;29562;40.390;-3.706;2023-04-06T21:04:14;12.00;;;7.15;;
43901;SDS011;29562;40.390;-3.706;2023-04-06T21:14:17;11.90;;;4.88;;
43901;SDS011;29562;40.390;-3.706;2023-04-06T21:24:19;6.97;;;3.67;;
43901;SDS011;29562;40.390;-3.706;2023-04-06T21:34:21;3.63;;;1.67;;
43901;SDS011;29562;40.390;-3.706;2023-04-06T21:44:23;6.03;;;3.75;;
43901;SDS011;29562;40.390;-3.706;2023-04-06T21:54:25;4.00;;;1.38;;
43901;SDS011;29562;40.390;-3.706;2023-04-06T22:04:26;3.38;;;1.40;;
43901;SDS011;29562;40.390;-3.706;2023-04-06T22:14:28;5.50;;;2.05;;
43901;SDS011;29562;40.390;-3.706;2023-04-06T22:24:30;7.25;;;3.60;;
43901;SDS011;29562;40.390;-3.706;2023-04-06T22:34:32;3.60;;;1.45;;
43901;SDS011;29562;40.390;-3.706;2023-04-06T22:44:34;7.05;;;1.50;;
43901;SDS011;29562;40.390;-3.706;2023-04-06T22:54:35;3.10;;;1.38;;
43901;SDS011;29562;40.390;-3.706;2023-04-06T23:04:37;4.22;;;0.85;;
43901;SDS011;29562;40.390;-3.706;2023-04-06T23:14:39;5.57;;;0.90;;
43901;SDS011;29562;40.390;-3.706;2023-04-06T23:24:41;3.50;;;1.00;;
43901;SDS011;29562;40.390;-3.706;2023-04-06T23:34:43;2.97;;;0.47;;
43901;SDS011;29562;40.390;-3.706;2023-04-06T23:44:44;2.75;;;0.70;;
43901;SDS011;29562;40.390;-3.706;2023-04-06T23:54:47;4.80;;;1.05;;
